createdAt,value
2019-04-21T00:01:48.968Z,6.15
2019-04-21T00:04:30.830Z,6.30
2019-04-21T00:07:11.725Z,10.75
2019-04-21T00:09:39.861Z,6.17
2019-04-21T00:12:12.406Z,7.53
2019-04-21T00:14:34.994Z,6.92
2019-04-21T00:17:00.613Z,7.08
2019-04-21T00:19:28.800Z,7.20
2019-04-21T00:22:08.574Z,6.28
2019-04-21T00:24:41.240Z,6.70
2019-04-21T00:27:18.814Z,6.47
2019-04-21T00:29:50.164Z,6.58
2019-04-21T00:32:14.569Z,8.98
2019-04-21T00:34:32.481Z,6.00
2019-04-21T00:37:12.078Z,6.60
2019-04-21T00:40:01.952Z,6.53
2019-04-21T00:42:25.661Z,7.72
2019-04-21T00:44:56.582Z,6.67
2019-04-21T00:47:30.593Z,7.22
2019-04-21T00:50:00.774Z,9.15
2019-04-21T00:57:53.446Z,6.58
2019-04-21T01:00:20.245Z,10.28
2019-04-21T01:02:56.158Z,6.42
2019-04-21T01:05:23.963Z,8.10
2019-04-21T01:07:50.356Z,8.15
2019-04-21T01:10:16.150Z,7.62
2019-04-21T01:12:54.709Z,6.42
2019-04-21T01:17:59.351Z,6.03
2019-04-21T01:20:16.863Z,6.12
2019-04-21T01:22:41.399Z,10.82
2019-04-21T01:25:19.923Z,9.08
2019-04-21T01:27:59.320Z,6.05
2019-04-21T01:30:34.494Z,6.30
2019-04-21T01:33:08.962Z,6.37
2019-04-21T01:35:40.341Z,6.35
2019-04-21T01:38:08.226Z,9.13
2019-04-21T01:40:41.125Z,6.15
2019-04-21T01:43:07.610Z,6.62
2019-04-21T01:45:37.042Z,6.37
2019-04-21T01:48:13.100Z,9.38
2019-04-21T01:50:41.128Z,6.85
2019-04-21T01:53:25.585Z,9.30
2019-04-21T01:55:48.178Z,7.60
2019-04-21T01:58:19.439Z,6.62
2019-04-21T02:01:09.909Z,6.15
2019-04-21T02:06:18.063Z,6.03
2019-04-21T02:08:44.808Z,7.85
2019-04-21T02:11:23.050Z,7.40
2019-04-21T02:13:57.256Z,8.68
2019-04-21T02:16:22.770Z,5.95
2019-04-21T02:18:49.950Z,6.67
2019-04-21T02:21:17.860Z,6.62
2019-04-21T02:24:00.560Z,6.83
2019-04-21T02:26:32.408Z,7.47
2019-04-21T02:29:02.003Z,8.43
2019-04-21T02:31:55.419Z,8.18
2019-04-21T02:34:06.816Z,7.17
2019-04-21T02:41:51.648Z,8.80
2019-04-21T02:44:18.449Z,6.90
2019-04-21T02:46:42.166Z,8.03
2019-04-21T02:49:31.137Z,6.58
2019-04-21T02:54:41.723Z,7.15
2019-04-21T02:57:09.297Z,6.92
2019-04-21T02:59:33.758Z,8.00
2019-04-21T03:04:42.551Z,7.00
2019-04-21T03:07:34.428Z,6.35
2019-04-21T03:09:53.094Z,5.90
2019-04-21T03:12:22.171Z,9.03
2019-04-21T03:15:15.995Z,6.17
2019-04-21T03:17:32.444Z,8.95
2019-04-21T03:20:03.081Z,7.47
2019-04-21T03:22:32.393Z,10.90
2019-04-21T03:27:40.133Z,6.90
2019-04-21T03:30:33.281Z,6.87
2019-04-21T03:32:50.619Z,7.87
2019-04-21T03:40:06.867Z,8.45
2019-04-21T03:42:43.127Z,9.80
2019-04-21T03:45:14.949Z,7.33
2019-04-21T03:48:04.707Z,6.97
2019-04-21T03:50:15.599Z,10.28
2019-04-21T03:52:53.293Z,6.60
2019-04-21T03:55:48.801Z,8.35
2019-04-21T04:03:44.262Z,9.05
2019-04-21T04:06:05.532Z,6.65
2019-04-21T04:11:14.840Z,6.35
2019-04-21T04:13:53.350Z,5.50
2019-04-21T04:16:10.116Z,8.25
2019-04-21T04:23:45.603Z,6.95
2019-04-21T04:26:13.344Z,7.97
2019-04-21T04:29:05.944Z,9.93
2019-04-21T04:31:41.724Z,10.72
2019-04-21T04:34:16.201Z,9.08
2019-04-21T04:39:36.611Z,10.08
2019-04-21T04:42:03.571Z,9.98
2019-04-21T04:44:50.033Z,8.83
2019-04-21T04:47:07.349Z,8.15
2019-04-21T04:57:13.830Z,9.15
2019-04-21T05:04:46.228Z,13.80
2019-04-21T05:07:13.867Z,10.78
2019-04-21T05:09:41.244Z,10.88
2019-04-21T05:12:27.117Z,9.50
2019-04-21T05:14:48.371Z,9.20
2019-04-21T05:17:24.933Z,12.68
2019-04-21T05:19:57.419Z,12.25
2019-04-21T05:24:38.571Z,11.95
2019-04-21T05:27:08.666Z,11.38
2019-04-21T05:29:54.991Z,13.15
2019-04-21T05:32:29.791Z,16.30
2019-04-21T05:34:55.807Z,20.88
2019-04-21T05:37:35.175Z,24.65
2019-04-21T05:40:00.754Z,16.70
2019-04-21T05:42:35.990Z,24.60
2019-04-21T05:45:18.514Z,21.70
2019-04-21T05:47:48.152Z,26.68
2019-04-21T05:50:20.515Z,21.77
2019-04-21T05:52:51.614Z,29.55
2019-04-21T05:55:34.224Z,21.42
2019-04-21T05:57:59.283Z,32.98
2019-04-21T06:00:55.929Z,28.25
2019-04-21T06:05:47.850Z,25.43
2019-04-21T06:08:13.342Z,26.42
2019-04-21T06:10:47.748Z,30.25
2019-04-21T06:13:18.717Z,23.95
2019-04-21T06:15:54.685Z,23.75
2019-04-21T06:18:20.163Z,15.95
2019-04-21T06:20:51.151Z,16.85
2019-04-21T06:23:21.018Z,13.83
2019-04-21T06:26:12.217Z,13.90
2019-04-21T06:28:30.551Z,13.30
2019-04-21T06:31:00.307Z,11.28
2019-04-21T06:33:32.255Z,21.00
2019-04-21T06:39:01.782Z,17.55
2019-04-21T06:41:21.533Z,16.55
2019-04-21T06:43:56.573Z,15.25
2019-04-21T06:46:26.450Z,14.47
2019-04-21T06:48:55.532Z,10.30
2019-04-21T06:51:27.210Z,23.25
2019-04-21T06:53:59.642Z,20.60
2019-04-21T06:56:33.300Z,19.67
2019-04-21T06:58:57.917Z,17.87
2019-04-21T07:01:34.641Z,19.07
2019-04-21T07:06:35.728Z,11.57
2019-04-21T07:09:23.782Z,8.73
2019-04-21T07:11:34.969Z,9.48
2019-04-21T07:14:19.569Z,7.97
2019-04-21T07:16:41.523Z,10.05
2019-04-21T07:19:17.574Z,11.10
2019-04-21T07:21:38.715Z,8.88
2019-04-21T07:24:13.884Z,12.37
2019-04-21T07:26:45.899Z,12.18
2019-04-21T07:29:15.803Z,9.48
2019-04-21T07:34:22.674Z,11.10
2019-04-21T07:36:52.164Z,23.67
2019-04-21T07:39:10.324Z,14.58
2019-04-21T07:41:43.802Z,14.13
2019-04-21T07:44:15.079Z,8.85
2019-04-21T07:46:43.125Z,12.75
2019-04-21T07:49:39.660Z,8.35
2019-04-21T07:52:28.370Z,7.97
2019-04-21T07:55:12.947Z,12.47
2019-04-21T07:57:26.046Z,11.57
2019-04-21T08:00:15.056Z,11.93
2019-04-21T08:02:38.633Z,11.20
2019-04-21T08:05:19.945Z,11.22
2019-04-21T08:07:49.351Z,11.10
2019-04-21T08:10:06.357Z,13.25
2019-04-21T08:12:30.656Z,11.30
2019-04-21T08:15:15.491Z,8.65
2019-04-21T08:17:45.721Z,10.20
2019-04-21T08:20:07.730Z,13.30
2019-04-21T08:22:46.791Z,10.93
2019-04-21T08:25:17.884Z,10.98
2019-04-21T08:27:52.148Z,13.38
2019-04-21T08:30:20.997Z,11.05
2019-04-21T08:33:00.870Z,11.83
2019-04-21T08:37:48.120Z,8.03
2019-04-21T08:40:27.402Z,12.33
2019-04-21T08:42:54.023Z,10.15
2019-04-21T08:45:28.247Z,7.60
2019-04-21T08:48:00.395Z,8.05
2019-04-21T08:50:25.648Z,7.62
2019-04-21T08:53:00.776Z,8.10
2019-04-21T08:55:42.894Z,7.10
2019-04-21T09:01:00.904Z,7.12
2019-04-21T09:03:51.962Z,8.78
2019-04-21T09:08:52.298Z,6.85
2019-04-21T09:11:22.074Z,6.80
2019-04-21T09:13:55.839Z,6.72
2019-04-21T09:16:27.772Z,7.05
2019-04-21T09:18:52.792Z,10.72
2019-04-21T09:21:31.528Z,9.23
2019-04-21T09:23:56.453Z,9.53
2019-04-21T09:26:29.448Z,12.50
2019-04-21T09:28:54.505Z,13.18
2019-04-21T09:31:17.955Z,16.30
2019-04-21T09:33:50.846Z,10.10
2019-04-21T09:36:21.185Z,11.83
2019-04-21T09:38:56.110Z,11.00
2019-04-21T09:41:23.772Z,10.32
2019-04-21T09:43:54.020Z,13.40
2019-04-21T09:46:23.219Z,9.03
2019-04-21T09:48:59.110Z,12.55
2019-04-21T09:51:23.796Z,12.65
2019-04-21T09:54:01.118Z,9.15
2019-04-21T09:56:36.106Z,12.07
2019-04-21T09:59:04.062Z,10.05
2019-04-21T10:01:38.957Z,8.83
2019-04-21T10:04:01.658Z,10.78
2019-04-21T10:06:29.079Z,14.98
2019-04-21T10:09:04.176Z,9.78
2019-04-21T10:11:33.283Z,11.93
2019-04-21T10:14:03.337Z,14.95
2019-04-21T10:16:44.938Z,10.10
2019-04-21T10:19:15.298Z,13.03
2019-04-21T10:21:44.942Z,11.90
2019-04-21T10:24:15.845Z,12.80
2019-04-21T10:26:45.554Z,15.30
2019-04-21T10:29:22.121Z,13.62
2019-04-21T10:31:46.855Z,14.33
2019-04-21T10:34:17.508Z,11.35
2019-04-21T10:36:47.131Z,14.68
2019-04-21T10:39:17.825Z,12.73
2019-04-21T10:41:47.766Z,17.70
2019-04-21T10:44:18.745Z,13.70
2019-04-21T10:46:50.316Z,12.68
2019-04-21T10:49:22.410Z,15.13
2019-04-21T10:51:52.966Z,10.48
2019-04-21T10:54:24.052Z,13.93
2019-04-21T10:56:54.667Z,14.60
2019-04-21T10:59:25.040Z,16.75
2019-04-21T11:01:54.915Z,11.38
2019-04-21T11:04:31.335Z,11.63
2019-04-21T11:07:07.064Z,12.53
2019-04-21T11:09:29.893Z,13.18
2019-04-21T11:11:59.886Z,10.53
2019-04-21T11:14:29.597Z,11.93
2019-04-21T11:17:00.430Z,14.80
2019-04-21T11:19:30.727Z,10.85
2019-04-21T11:22:01.034Z,12.43
2019-04-21T11:24:33.121Z,13.85
2019-04-21T11:27:02.845Z,14.35
2019-04-21T11:29:33.076Z,16.80
2019-04-21T11:32:03.050Z,13.38
2019-04-21T11:34:33.476Z,15.20
2019-04-21T11:37:06.025Z,16.15
2019-04-21T11:39:46.046Z,16.20
2019-04-21T11:42:09.958Z,11.60
2019-04-21T11:44:45.024Z,15.38
2019-04-21T11:47:22.714Z,14.07
2019-04-21T11:49:52.878Z,11.83
2019-04-21T11:52:23.149Z,13.40
2019-04-21T11:54:53.145Z,13.68
2019-04-21T11:57:27.856Z,12.50
2019-04-21T11:59:53.887Z,16.12
2019-04-21T12:02:23.607Z,14.75
2019-04-21T12:04:54.182Z,15.58
2019-04-21T12:07:25.041Z,12.20
2019-04-21T12:09:55.488Z,13.13
2019-04-21T12:12:27.487Z,12.13
2019-04-21T12:14:57.649Z,12.80
2019-04-21T12:17:27.966Z,13.43
2019-04-21T12:19:58.715Z,11.73
2019-04-21T12:22:31.977Z,11.53
2019-04-21T12:25:00.768Z,11.08
2019-04-21T12:27:31.889Z,11.45
2019-04-21T12:30:03.833Z,14.78
2019-04-21T12:32:51.815Z,12.75
2019-04-21T12:35:21.906Z,11.15
2019-04-21T12:37:53.106Z,17.48
2019-04-21T12:40:24.236Z,9.58
2019-04-21T12:42:54.865Z,11.93
2019-04-21T12:45:26.019Z,10.40
2019-04-21T12:47:55.817Z,9.43
2019-04-21T12:50:25.938Z,12.25
2019-04-21T12:52:55.834Z,11.68
2019-04-21T12:55:30.733Z,9.45
2019-04-21T12:57:57.286Z,14.90
2019-04-21T13:00:27.254Z,15.72
2019-04-21T13:02:58.055Z,9.73
2019-04-21T13:05:27.735Z,13.50
2019-04-21T13:07:57.507Z,10.82
2019-04-21T13:10:28.339Z,9.15
2019-04-21T13:12:57.883Z,9.58
2019-04-21T13:15:27.398Z,11.75
2019-04-21T13:17:58.412Z,11.22
2019-04-21T13:20:29.436Z,8.93
2019-04-21T13:22:59.764Z,9.58
2019-04-21T13:25:29.747Z,10.70
2019-04-21T13:28:00.753Z,9.70
2019-04-21T13:30:30.778Z,12.35
2019-04-21T13:33:00.862Z,12.63
2019-04-21T13:35:30.981Z,10.58
2019-04-21T13:38:00.776Z,10.93
2019-04-21T13:41:02.078Z,11.83
2019-04-21T13:43:18.986Z,10.80
2019-04-21T13:45:49.831Z,9.60
2019-04-21T13:48:19.758Z,9.60
2019-04-21T13:50:49.291Z,8.10
2019-04-21T13:53:20.905Z,7.62
2019-04-21T13:55:50.955Z,8.45
2019-04-21T13:58:20.487Z,9.03
2019-04-21T14:00:50.552Z,9.00
2019-04-21T14:03:23.072Z,12.47
2019-04-21T14:05:52.336Z,7.67
2019-04-21T14:08:25.156Z,8.05
2019-04-21T14:10:55.639Z,9.58
2019-04-21T14:13:26.730Z,7.62
2019-04-21T14:15:57.846Z,9.85
2019-04-21T14:18:28.879Z,7.50
2019-04-21T14:21:03.110Z,7.78
2019-04-21T14:23:38.585Z,9.73
2019-04-21T14:26:04.574Z,8.03
2019-04-21T14:28:34.170Z,7.83
2019-04-21T14:31:04.269Z,8.08
2019-04-21T14:33:34.222Z,9.03
2019-04-21T14:36:05.207Z,9.33
2019-04-21T14:38:36.525Z,9.73
2019-04-21T14:41:06.249Z,10.25
2019-04-21T14:43:36.207Z,12.78
2019-04-21T14:46:08.908Z,10.20
2019-04-21T14:48:57.187Z,8.45
2019-04-21T14:51:38.846Z,8.00
2019-04-21T14:54:22.596Z,8.08
2019-04-21T14:57:11.495Z,8.20
2019-04-21T14:59:41.018Z,9.90
2019-04-21T15:02:11.654Z,9.30
2019-04-21T15:04:41.727Z,8.95
2019-04-21T15:07:12.858Z,7.83
2019-04-21T15:09:44.517Z,8.60
2019-04-21T15:12:14.081Z,8.38
2019-04-21T15:14:44.150Z,7.90
2019-04-21T15:17:16.336Z,7.42
2019-04-21T15:19:54.057Z,7.65
2019-04-21T15:22:16.474Z,8.70
2019-04-21T15:24:46.217Z,8.70
2019-04-21T15:27:16.814Z,7.58
2019-04-21T15:29:46.895Z,8.43
2019-04-21T15:32:16.887Z,9.90
2019-04-21T15:34:47.853Z,10.63
2019-04-21T15:37:17.901Z,9.05
2019-04-21T15:39:48.756Z,7.03
2019-04-21T15:42:18.646Z,7.20
2019-04-21T15:44:48.479Z,7.35
2019-04-21T15:47:17.984Z,8.23
2019-04-21T15:50:01.171Z,7.33
2019-04-21T15:52:26.016Z,7.70
2019-04-21T15:54:58.857Z,6.50
2019-04-21T15:57:40.422Z,6.55
2019-04-21T16:00:31.342Z,7.08
2019-04-21T16:03:00.778Z,6.85
2019-04-21T16:05:30.837Z,6.97
2019-04-21T16:08:00.470Z,5.65
2019-04-21T16:10:37.638Z,6.75
2019-04-21T16:13:01.589Z,7.62
2019-04-21T16:15:32.486Z,5.53
2019-04-21T16:18:03.423Z,5.55
2019-04-21T16:20:33.258Z,5.17
2019-04-21T16:23:04.460Z,5.65
2019-04-21T16:25:34.818Z,4.90
2019-04-21T16:28:05.584Z,5.40
2019-04-21T16:30:36.213Z,4.75
2019-04-21T16:33:06.083Z,4.78
2019-04-21T16:35:35.759Z,5.60
2019-04-21T16:38:06.038Z,5.62
2019-04-21T16:40:48.164Z,5.20
2019-04-21T16:43:07.989Z,7.40
2019-04-21T16:45:39.126Z,5.35
2019-04-21T16:48:09.489Z,5.15
2019-04-21T16:50:39.526Z,6.87
2019-04-21T16:53:20.018Z,5.12
2019-04-21T16:55:51.456Z,5.95
2019-04-21T16:58:32.598Z,5.37
2019-04-21T17:01:14.885Z,5.03
2019-04-21T17:03:42.461Z,4.80
2019-04-21T17:06:13.237Z,4.53
2019-04-21T17:08:43.087Z,5.62
2019-04-21T17:11:19.392Z,5.85
2019-04-21T17:13:45.662Z,4.85
2019-04-21T17:16:43.507Z,4.65
2019-04-21T17:18:58.799Z,5.10
2019-04-21T17:21:17.497Z,5.08
2019-04-21T17:23:48.217Z,5.67
2019-04-21T17:26:19.264Z,6.47
2019-04-21T17:28:49.011Z,5.25
2019-04-21T17:31:39.172Z,9.48
2019-04-21T17:34:15.696Z,5.05
2019-04-21T17:36:41.134Z,5.83
2019-04-21T17:39:11.202Z,5.47
2019-04-21T17:41:55.988Z,5.33
2019-04-21T17:44:12.519Z,6.17
2019-04-21T17:46:50.020Z,7.35
2019-04-21T17:49:14.885Z,6.25
2019-04-21T17:51:52.511Z,5.75
2019-04-21T17:54:31.602Z,6.67
2019-04-21T18:02:23.277Z,7.83
2019-04-21T18:04:49.354Z,5.15
2019-04-21T18:07:26.242Z,4.92
2019-04-21T18:10:00.249Z,6.17
2019-04-21T18:14:55.524Z,5.72
2019-04-21T18:17:16.229Z,7.75
2019-04-21T18:19:47.933Z,8.83
2019-04-21T18:22:34.784Z,5.70
2019-04-21T18:25:06.760Z,14.03
2019-04-21T18:27:32.545Z,10.85
2019-04-21T18:30:06.328Z,10.82
2019-04-21T18:32:39.755Z,12.60
2019-04-21T18:35:13.255Z,32.48
2019-04-21T18:37:51.638Z,17.87
2019-04-21T18:40:25.603Z,7.58
2019-04-21T18:43:27.506Z,5.97
2019-04-21T18:46:00.762Z,7.65
2019-04-21T18:48:19.144Z,6.87
2019-04-21T18:50:50.941Z,7.25
2019-04-21T18:53:41.587Z,7.47
2019-04-21T18:56:03.912Z,6.22
2019-04-21T18:58:30.670Z,5.17
2019-04-21T19:01:09.339Z,6.53
2019-04-21T19:03:39.891Z,24.47
2019-04-21T19:06:10.810Z,19.27
2019-04-21T19:08:53.647Z,14.25
2019-04-21T19:11:25.158Z,17.73
2019-04-21T19:14:28.569Z,23.92
2019-04-21T19:16:50.986Z,9.38
2019-04-21T19:21:46.968Z,11.00
2019-04-21T19:24:27.532Z,15.78
2019-04-21T19:29:28.885Z,9.55
2019-04-21T19:31:54.788Z,9.88
2019-04-21T19:34:14.431Z,9.60
2019-04-21T19:36:46.686Z,6.87
2019-04-21T19:39:18.607Z,8.78
2019-04-21T19:41:57.576Z,6.03
2019-04-21T19:44:34.068Z,7.92
2019-04-21T19:47:08.411Z,6.90
2019-04-21T19:49:39.952Z,6.00
2019-04-21T19:51:58.749Z,6.22
2019-04-21T19:54:25.091Z,5.60
2019-04-21T19:56:49.446Z,17.65
2019-04-21T19:59:31.895Z,18.23
2019-04-21T20:01:51.366Z,11.08
2019-04-21T20:04:31.881Z,11.80
2019-04-21T20:07:02.921Z,15.18
2019-04-21T20:09:40.702Z,6.95
2019-04-21T20:12:09.607Z,8.13
2019-04-21T20:15:04.919Z,15.60
2019-04-21T20:19:32.039Z,9.90
2019-04-21T20:22:03.149Z,10.58
2019-04-21T20:24:35.728Z,6.42
2019-04-21T20:27:10.052Z,8.85
2019-04-21T20:29:57.874Z,8.45
2019-04-21T20:35:00.872Z,10.13
2019-04-21T20:37:26.474Z,8.33
2019-04-21T20:39:47.304Z,6.70
2019-04-21T20:42:23.706Z,7.17
2019-04-21T20:45:16.686Z,6.80
2019-04-21T20:47:22.832Z,7.62
2019-04-21T20:49:59.798Z,11.12
2019-04-21T20:52:35.350Z,6.85
2019-04-21T20:55:02.230Z,8.10
2019-04-21T20:57:32.771Z,9.98
2019-04-21T21:00:07.442Z,8.65
2019-04-21T21:02:44.731Z,9.45
2019-04-21T21:05:00.351Z,8.48
2019-04-21T21:07:44.377Z,9.13
2019-04-21T21:10:12.249Z,12.20
2019-04-21T21:12:51.256Z,8.40
2019-04-21T21:15:07.908Z,7.78
2019-04-21T21:17:53.893Z,7.70
2019-04-21T21:20:20.921Z,9.20
2019-04-21T21:22:48.141Z,11.73
2019-04-21T21:25:29.215Z,10.60
2019-04-21T21:27:47.026Z,10.13
2019-04-21T21:30:18.634Z,7.65
2019-04-21T21:32:54.421Z,5.75
2019-04-21T21:35:21.443Z,7.55
2019-04-21T21:38:03.523Z,7.67
2019-04-21T21:40:30.426Z,5.17
2019-04-21T21:42:45.288Z,5.45
2019-04-21T21:45:18.357Z,4.95
2019-04-21T21:48:00.709Z,6.03
2019-04-21T21:50:26.063Z,5.60
2019-04-21T21:52:59.891Z,4.97
2019-04-21T21:55:21.489Z,4.85
2019-04-21T21:57:55.322Z,5.28
2019-04-21T22:00:26.295Z,6.87
2019-04-21T22:03:03.529Z,6.33
2019-04-21T22:05:32.770Z,5.17
2019-04-21T22:08:00.541Z,5.40
2019-04-21T22:10:31.415Z,6.28
2019-04-21T22:13:08.262Z,6.87
2019-04-21T22:15:33.799Z,8.25
2019-04-21T22:18:27.312Z,4.87
2019-04-21T22:20:53.741Z,5.42
2019-04-21T22:23:11.291Z,6.42
2019-04-21T22:25:41.256Z,5.50
2019-04-21T22:28:09.658Z,5.17
2019-04-21T22:30:44.721Z,6.72
2019-04-21T22:33:14.173Z,7.87
2019-04-21T22:35:46.317Z,5.80
2019-04-21T22:38:28.304Z,5.75
2019-04-21T22:40:58.007Z,18.82
2019-04-21T22:43:24.487Z,23.22
2019-04-21T22:45:47.308Z,8.58
2019-04-21T22:48:21.006Z,5.10
2019-04-21T22:50:48.560Z,6.62
2019-04-21T22:53:21.439Z,5.72
2019-04-21T22:56:00.360Z,6.85
2019-04-21T22:58:28.301Z,9.75
2019-04-21T23:00:56.909Z,6.30
2019-04-21T23:03:27.035Z,4.85
2019-04-21T23:06:02.880Z,4.90
2019-04-21T23:08:34.412Z,5.83
2019-04-21T23:11:03.486Z,5.03
2019-04-21T23:13:30.922Z,5.35
2019-04-21T23:16:03.150Z,4.50
2019-04-21T23:18:48.000Z,8.28
2019-04-21T23:21:16.277Z,5.12
2019-04-21T23:23:57.183Z,4.65
2019-04-21T23:26:29.725Z,5.00
2019-04-21T23:28:56.844Z,5.22
2019-04-21T23:31:29.085Z,5.20
2019-04-21T23:33:42.179Z,5.10
2019-04-21T23:36:17.231Z,4.53
2019-04-21T23:38:47.507Z,5.75
2019-04-21T23:41:15.304Z,4.90
2019-04-21T23:43:53.163Z,5.40
2019-04-21T23:46:20.235Z,10.03
2019-04-21T23:49:02.466Z,4.70
2019-04-21T23:51:30.188Z,6.55
2019-04-21T23:53:51.145Z,4.53
2019-04-21T23:56:27.889Z,9.68
2019-04-21T23:58:57.945Z,6.53
